createdAt,value
2023-02-06T00:01:24.502Z,19.77
2023-02-06T00:03:51.006Z,19.50
2023-02-06T00:06:17.680Z,14.15
2023-02-06T00:08:44.351Z,15.20
2023-02-06T00:11:13.884Z,10.90
2023-02-06T00:13:40.448Z,9.75
2023-02-06T00:16:19.557Z,8.30
2023-02-06T00:18:46.355Z,8.57
2023-02-06T00:21:13.329Z,9.95
2023-02-06T00:23:40.234Z,10.05
2023-02-06T00:26:07.795Z,10.00
2023-02-06T00:28:34.878Z,8.90
2023-02-06T00:31:01.452Z,9.40
2023-02-06T00:33:28.013Z,7.88
2023-02-06T00:35:54.515Z,8.23
2023-02-06T00:38:21.061Z,8.77
2023-02-06T00:40:47.705Z,8.10
2023-02-06T00:43:14.576Z,7.78
2023-02-06T00:45:41.223Z,8.63
2023-02-06T00:48:09.194Z,28.00
2023-02-06T00:50:36.096Z,64.60
2023-02-06T00:53:02.645Z,63.22
2023-02-06T00:55:29.131Z,67.70
2023-02-06T00:57:55.617Z,44.13
2023-02-06T01:00:22.236Z,34.70
2023-02-06T01:02:48.747Z,25.05
2023-02-06T01:05:15.245Z,30.67
2023-02-06T01:07:41.763Z,24.77
2023-02-06T01:10:09.323Z,28.50
2023-02-06T01:12:36.876Z,20.33
2023-02-06T01:15:08.959Z,11.20
2023-02-06T01:17:36.116Z,11.05
2023-02-06T01:20:02.801Z,9.05
2023-02-06T01:22:29.291Z,8.48
2023-02-06T01:24:55.803Z,12.35
2023-02-06T01:27:22.343Z,16.00
2023-02-06T01:29:48.831Z,9.70
2023-02-06T01:32:15.369Z,11.73
2023-02-06T01:34:42.038Z,11.27
2023-02-06T01:37:08.492Z,12.13
2023-02-06T01:39:35.022Z,15.30
2023-02-06T01:42:01.585Z,11.57
2023-02-06T01:44:28.326Z,14.13
2023-02-06T01:46:57.072Z,8.68
2023-02-06T01:49:26.390Z,12.07
2023-02-06T01:51:59.378Z,11.25
2023-02-06T01:54:26.693Z,10.35
2023-02-06T01:56:56.644Z,8.60
2023-02-06T02:01:50.680Z,12.98
2023-02-06T02:04:20.203Z,9.40
2023-02-06T02:06:58.527Z,8.68
2023-02-06T02:09:25.828Z,11.32
2023-02-06T02:11:52.326Z,11.07
2023-02-06T02:14:18.839Z,12.80
2023-02-06T02:17:03.138Z,11.68
2023-02-06T02:19:48.115Z,8.70
2023-02-06T02:22:45.579Z,9.35
2023-02-06T02:25:24.071Z,10.30
2023-02-06T02:28:20.951Z,11.40
2023-02-06T02:31:19.853Z,9.77
2023-02-06T02:34:23.808Z,11.23
2023-02-06T02:37:34.980Z,11.85
2023-02-06T02:40:45.751Z,11.13
2023-02-06T02:43:49.545Z,11.00
2023-02-06T02:46:34.328Z,10.68
2023-02-06T02:49:12.443Z,11.40
2023-02-06T02:51:40.659Z,11.07
2023-02-06T02:54:08.103Z,10.73
2023-02-06T02:56:35.374Z,8.75
2023-02-06T02:59:10.757Z,9.05
2023-02-06T03:01:43.810Z,10.32
2023-02-06T03:04:18.038Z,10.52
2023-02-06T03:06:56.550Z,10.02
2023-02-06T03:09:40.082Z,9.55
2023-02-06T03:12:09.472Z,8.68
2023-02-06T03:14:59.930Z,10.88
2023-02-06T03:17:35.035Z,8.15
2023-02-06T03:20:05.015Z,12.80
2023-02-06T03:25:01.477Z,8.35
2023-02-06T03:27:29.985Z,10.98
2023-02-06T03:29:59.331Z,11.80
2023-02-06T03:32:30.432Z,9.82
2023-02-06T03:35:08.240Z,9.60
2023-02-06T03:37:35.752Z,13.52
2023-02-06T03:40:03.650Z,8.88
2023-02-06T03:42:33.709Z,11.82
2023-02-06T03:45:17.180Z,8.15
2023-02-06T03:47:46.444Z,8.02
2023-02-06T03:50:14.127Z,9.80
2023-02-06T03:52:46.508Z,13.30
2023-02-06T03:55:19.425Z,8.38
2023-02-06T03:57:51.435Z,9.60
2023-02-06T04:00:18.712Z,13.50
2023-02-06T04:02:49.700Z,11.52
2023-02-06T04:05:18.283Z,8.05
2023-02-06T04:07:44.979Z,10.48
2023-02-06T04:10:11.923Z,10.75
2023-02-06T04:12:38.830Z,9.65
2023-02-06T04:15:05.851Z,12.57
2023-02-06T04:17:49.732Z,10.23
2023-02-06T04:20:19.977Z,10.07
2023-02-06T04:22:47.056Z,10.27
2023-02-06T04:25:13.571Z,9.32
2023-02-06T04:27:40.080Z,9.75
2023-02-06T04:30:07.223Z,11.20
2023-02-06T04:32:33.716Z,9.63
2023-02-06T04:35:00.212Z,10.20
2023-02-06T04:37:26.712Z,11.20
2023-02-06T04:39:53.193Z,9.55
2023-02-06T04:42:19.711Z,9.25
2023-02-06T04:44:46.223Z,10.02
2023-02-06T04:47:12.872Z,9.85
2023-02-06T04:49:39.351Z,9.38
2023-02-06T04:52:06.053Z,9.95
2023-02-06T04:54:32.887Z,9.02
2023-02-06T04:56:59.508Z,8.77
2023-02-06T04:59:26.214Z,8.77
2023-02-06T05:01:52.713Z,9.82
2023-02-06T05:19:03.443Z,8.82
2023-02-06T05:21:30.028Z,9.85
2023-02-06T05:23:56.541Z,14.80
2023-02-06T05:26:23.071Z,14.88
2023-02-06T05:28:49.577Z,10.95
2023-02-06T05:31:19.877Z,9.48
2023-02-06T05:33:50.490Z,11.48
2023-02-06T05:36:19.873Z,18.02
2023-02-06T05:38:47.114Z,16.95
2023-02-06T05:41:14.281Z,16.77
2023-02-06T05:43:40.951Z,12.48
2023-02-06T05:46:07.590Z,15.40
2023-02-06T05:48:34.926Z,11.48
2023-02-06T05:51:01.929Z,14.15
2023-02-06T05:53:28.494Z,17.85
2023-02-06T05:55:55.520Z,9.73
2023-02-06T05:58:22.019Z,11.65
2023-02-06T06:00:48.564Z,12.13
2023-02-06T06:03:15.063Z,16.17
2023-02-06T06:05:41.623Z,21.23
2023-02-06T06:08:08.314Z,23.35
2023-02-06T06:10:34.890Z,18.13
2023-02-06T06:13:01.388Z,16.45
2023-02-06T06:15:27.965Z,18.65
2023-02-06T06:17:54.521Z,14.10
2023-02-06T06:20:21.047Z,13.13
2023-02-06T06:22:47.534Z,10.38
2023-02-06T06:25:14.069Z,12.95
2023-02-06T06:27:40.616Z,14.48
2023-02-06T06:30:07.838Z,11.68
2023-02-06T06:32:34.450Z,11.32
2023-02-06T06:35:00.955Z,11.98
2023-02-06T06:37:27.430Z,14.13
2023-02-06T06:39:53.892Z,13.40
2023-02-06T06:42:20.391Z,21.83
2023-02-06T06:49:04.325Z,16.38
2023-02-06T06:51:30.856Z,17.45
2023-02-06T06:53:57.484Z,19.35
2023-02-06T06:56:24.118Z,16.52
2023-02-06T06:58:50.880Z,15.70
2023-02-06T07:01:18.584Z,11.88
2023-02-06T07:03:47.081Z,9.30
2023-02-06T07:06:13.607Z,11.15
2023-02-06T07:08:42.045Z,11.98
2023-02-06T07:11:10.412Z,10.63
2023-02-06T07:13:36.951Z,10.98
2023-02-06T07:16:03.766Z,12.88
2023-02-06T07:18:30.474Z,11.80
2023-02-06T07:20:56.981Z,10.95
2023-02-06T07:23:23.511Z,10.75
2023-02-06T07:25:50.158Z,12.10
2023-02-06T07:28:16.699Z,11.30
2023-02-06T07:30:43.666Z,15.20
2023-02-06T07:38:03.733Z,12.18
2023-02-06T07:40:43.213Z,13.65
2023-02-06T15:58:59.661Z,9.15
2023-02-06T16:01:30.488Z,8.13
2023-02-06T16:04:02.017Z,9.45
2023-02-06T16:06:28.688Z,11.18
2023-02-06T16:08:58.348Z,11.23
2023-02-06T16:11:46.186Z,8.55
2023-02-06T16:14:30.524Z,12.68
2023-02-06T16:17:12.341Z,17.10
2023-02-06T16:19:48.428Z,19.15
2023-02-06T16:22:21.076Z,14.43
2023-02-06T16:24:48.635Z,12.25
2023-02-06T16:27:19.826Z,10.88
2023-02-06T16:29:50.068Z,9.75
2023-02-06T16:32:31.698Z,12.45
2023-02-06T16:35:01.175Z,11.73
2023-02-06T16:37:30.009Z,14.55
2023-02-06T16:39:56.634Z,7.85
2023-02-06T16:42:33.886Z,11.30
2023-02-06T16:45:05.558Z,10.68
2023-02-06T16:47:32.127Z,11.02
2023-02-06T16:49:58.664Z,9.05
2023-02-06T16:52:29.052Z,10.63
2023-02-06T16:54:58.921Z,9.73
2023-02-06T16:57:46.578Z,9.38
2023-02-06T17:00:20.583Z,10.85
2023-02-06T17:02:47.973Z,11.70
2023-02-06T17:05:15.321Z,13.85
2023-02-06T17:07:42.503Z,10.15
2023-02-06T17:10:10.339Z,10.13
2023-02-06T17:12:37.108Z,8.25
2023-02-06T17:15:04.377Z,10.80
2023-02-06T17:17:31.260Z,9.90
2023-02-06T17:19:58.013Z,9.07
2023-02-06T17:22:24.683Z,10.77
2023-02-06T17:24:51.399Z,10.13
2023-02-06T17:27:20.821Z,9.65
2023-02-06T17:29:48.120Z,15.45
2023-02-06T17:32:16.161Z,16.35
2023-02-06T17:34:42.906Z,16.63
2023-02-06T17:37:20.445Z,20.48
2023-02-06T17:39:48.956Z,14.75
2023-02-06T17:42:15.734Z,12.70
2023-02-06T17:44:42.799Z,12.27
2023-02-06T17:47:09.516Z,15.15
2023-02-06T17:49:39.454Z,13.13
2023-02-06T17:52:05.956Z,15.25
2023-02-06T17:54:32.705Z,9.80
2023-02-06T17:56:59.354Z,11.40
2023-02-06T17:59:36.532Z,11.90
2023-02-06T18:02:03.104Z,13.82
2023-02-06T18:04:29.765Z,11.70
2023-02-06T18:06:56.305Z,11.63
2023-02-06T18:09:22.903Z,10.95
2023-02-06T18:11:49.473Z,10.43
2023-02-06T18:14:15.994Z,12.32
2023-02-06T18:16:42.937Z,22.83
2023-02-06T18:19:10.477Z,15.57
2023-02-06T18:21:36.982Z,14.20
2023-02-06T18:24:03.607Z,13.85
2023-02-06T18:26:30.180Z,10.80
2023-02-06T18:28:56.694Z,19.90
2023-02-06T18:31:35.391Z,11.65
2023-02-06T18:34:07.691Z,12.60
2023-02-06T18:36:36.230Z,11.35
2023-02-06T18:39:03.368Z,11.52
2023-02-06T18:41:48.208Z,11.40
2023-02-06T18:44:14.729Z,14.88
2023-02-06T18:46:41.312Z,13.10
2023-02-06T18:49:07.864Z,11.23
2023-02-06T18:51:34.636Z,18.42
2023-02-06T18:54:01.319Z,14.98
2023-02-06T18:56:28.275Z,14.82
2023-02-06T18:58:55.616Z,12.95
2023-02-06T19:01:24.904Z,11.73
2023-02-06T19:03:53.270Z,12.95
2023-02-06T19:06:25.684Z,16.00
2023-02-06T19:08:52.184Z,13.75
2023-02-06T19:11:18.698Z,12.18
2023-02-06T19:13:45.469Z,12.20
2023-02-06T19:16:17.592Z,11.82
2023-02-06T19:18:46.573Z,11.48
2023-02-06T19:21:17.098Z,11.07
2023-02-06T19:23:45.201Z,13.60
2023-02-06T19:26:14.566Z,17.80
2023-02-06T19:28:42.494Z,16.00
2023-02-06T19:31:10.867Z,11.85
2023-02-06T19:33:39.304Z,13.50
2023-02-06T19:36:15.957Z,10.48
2023-02-06T19:38:43.386Z,15.82
2023-02-06T19:41:13.501Z,17.08
2023-02-06T19:46:13.169Z,17.10
2023-02-06T19:48:45.566Z,23.30
2023-02-06T19:51:30.542Z,23.73
2023-02-06T19:53:58.586Z,27.63
2023-02-06T19:56:38.224Z,22.80
2023-02-06T19:59:08.862Z,26.80
2023-02-06T20:01:36.064Z,18.33
2023-02-06T20:04:03.618Z,19.65
2023-02-06T20:06:34.880Z,24.05
2023-02-06T20:09:03.731Z,17.17
2023-02-06T20:11:31.611Z,20.00
2023-02-06T20:13:58.850Z,15.48
2023-02-06T20:16:29.582Z,19.77
2023-02-06T20:18:56.806Z,21.33
2023-02-06T20:21:31.271Z,16.88
2023-02-06T20:24:00.738Z,19.45
2023-02-06T20:26:30.479Z,22.70
2023-02-06T20:28:57.044Z,22.17
2023-02-06T20:31:23.768Z,17.67
2023-02-06T20:33:50.513Z,17.75
2023-02-06T20:36:23.216Z,13.32
2023-02-06T20:39:00.233Z,14.30
2023-02-06T20:41:31.089Z,13.40
2023-02-06T20:44:00.281Z,12.82
2023-02-06T20:46:29.676Z,16.57
2023-02-06T20:49:02.195Z,14.90
2023-02-06T20:51:29.905Z,13.27
2023-02-06T20:53:56.543Z,11.90
2023-02-06T20:56:25.151Z,14.30
2023-02-06T20:58:52.391Z,11.63
2023-02-06T21:01:22.377Z,14.27
2023-02-06T21:06:21.095Z,17.05
2023-02-06T21:08:50.138Z,15.98
2023-02-06T21:11:17.489Z,14.47
2023-02-06T21:13:44.017Z,19.23
2023-02-06T21:16:13.461Z,17.55
2023-02-06T21:18:42.498Z,21.13
2023-02-06T21:21:12.535Z,16.00
2023-02-06T21:23:41.139Z,13.77
2023-02-06T21:26:09.761Z,13.48
2023-02-06T21:28:37.095Z,12.48
2023-02-06T21:31:14.898Z,15.57
2023-02-06T21:33:41.756Z,17.75
2023-02-06T21:36:08.605Z,13.38
2023-02-06T21:38:36.377Z,14.65
2023-02-06T21:41:14.781Z,15.73
2023-02-06T21:43:41.821Z,16.23
2023-02-06T21:46:09.903Z,14.20
2023-02-06T21:48:36.825Z,17.52
2023-02-06T21:51:11.876Z,14.32
2023-02-06T21:53:38.942Z,14.07
2023-02-06T21:56:16.257Z,11.95
2023-02-06T21:58:43.319Z,15.32
2023-02-06T22:01:17.740Z,15.32
2023-02-06T22:03:45.780Z,14.50
2023-02-06T22:06:13.595Z,16.30
2023-02-06T22:08:43.234Z,15.00
2023-02-06T22:11:17.425Z,14.15
2023-02-06T22:13:44.968Z,14.15
2023-02-06T22:16:13.839Z,18.20
2023-02-06T22:18:41.420Z,18.35
2023-02-06T22:21:11.381Z,20.25
2023-02-06T22:26:04.829Z,17.70
2023-02-06T22:28:31.578Z,21.42
2023-02-06T22:31:08.526Z,22.95
2023-02-06T22:33:35.486Z,22.90
2023-02-06T22:36:10.332Z,18.05
2023-02-06T22:38:37.570Z,15.38
2023-02-06T22:41:06.848Z,16.58
2023-02-06T22:43:36.194Z,14.68
2023-02-06T22:46:03.955Z,15.73
2023-02-06T22:48:30.719Z,15.65
2023-02-06T22:50:57.259Z,16.90
2023-02-06T22:53:29.684Z,16.08
2023-02-06T22:56:20.453Z,17.05
2023-02-06T22:58:48.117Z,15.82
2023-02-06T23:01:16.286Z,17.40
2023-02-06T23:03:43.144Z,20.33
2023-02-06T23:06:11.209Z,17.92
2023-02-06T23:08:38.006Z,19.98
2023-02-06T23:11:05.876Z,17.95
2023-02-06T23:13:32.893Z,17.95
2023-02-06T23:16:00.009Z,17.75
2023-02-06T23:18:27.816Z,22.70
2023-02-06T23:21:00.026Z,19.45
2023-02-06T23:23:27.327Z,16.38
2023-02-06T23:25:53.950Z,19.67
2023-02-06T23:28:22.238Z,16.80
2023-02-06T23:30:48.806Z,15.32
2023-02-06T23:33:16.928Z,17.10
2023-02-06T23:35:43.877Z,16.35
2023-02-06T23:38:11.435Z,20.55
2023-02-06T23:40:38.232Z,16.08
2023-02-06T23:43:05.979Z,15.27
2023-02-06T23:45:33.269Z,12.70
2023-02-06T23:47:59.825Z,16.90
2023-02-06T23:50:27.022Z,14.45
2023-02-06T23:52:53.653Z,16.00
2023-02-06T23:55:20.897Z,18.75
2023-02-06T23:57:47.556Z,16.92
